createdAt,value
2018-09-25T00:01:17.298Z,71.53
2018-09-25T00:03:51.162Z,71.66
2018-09-25T00:06:24.835Z,71.52
2018-09-25T00:08:58.465Z,71.37
2018-09-25T00:11:31.981Z,71.25
2018-09-25T00:14:05.866Z,70.69
2018-09-25T00:16:39.866Z,70.62
2018-09-25T00:19:13.782Z,70.86
2018-09-25T00:21:47.566Z,71.25
2018-09-25T00:24:21.254Z,71.84
2018-09-25T00:26:55.020Z,71.58
2018-09-25T00:29:28.725Z,72.07
2018-09-25T00:32:02.449Z,72.58
2018-09-25T00:34:36.298Z,73.28
2018-09-25T00:37:10.089Z,72.83
2018-09-25T00:39:43.918Z,73.19
2018-09-25T00:42:17.744Z,73.25
2018-09-25T00:44:51.566Z,73.53
2018-09-25T00:47:25.486Z,73.71
2018-09-25T00:49:59.426Z,74.51
2018-09-25T00:52:33.133Z,74.59
2018-09-25T00:55:06.730Z,74.81
2018-09-25T00:57:40.410Z,75.50
2018-09-25T01:00:14.182Z,75.55
2018-09-25T01:02:48.050Z,75.77
2018-09-25T01:05:21.818Z,75.62
2018-09-25T01:07:55.753Z,76.36
2018-09-25T01:10:29.442Z,76.35
2018-09-25T01:13:03.191Z,75.99
2018-09-25T01:15:37.030Z,76.06
2018-09-25T01:18:10.891Z,76.25
2018-09-25T01:20:44.745Z,75.97
2018-09-25T01:23:18.587Z,76.39
2018-09-25T01:25:52.582Z,76.67
2018-09-25T01:28:26.251Z,76.39
2018-09-25T01:31:00.046Z,76.43
2018-09-25T01:33:33.886Z,76.61
2018-09-25T01:36:07.816Z,78.15
2018-09-25T01:38:41.829Z,77.75
2018-09-25T01:41:15.505Z,77.69
2018-09-25T01:43:49.569Z,78.08
2018-09-25T01:46:23.290Z,77.79
2018-09-25T01:48:57.168Z,77.31
2018-09-25T01:51:31.024Z,77.68
2018-09-25T01:54:04.761Z,77.77
2018-09-25T01:56:38.626Z,77.93
2018-09-25T01:59:12.672Z,77.83
2018-09-25T02:01:46.530Z,78.31
2018-09-25T02:04:20.373Z,78.99
2018-09-25T02:06:54.290Z,78.50
2018-09-25T02:09:27.989Z,78.48
2018-09-25T02:12:01.859Z,77.71
2018-09-25T02:14:35.681Z,78.26
2018-09-25T02:17:09.566Z,77.43
2018-09-25T02:19:43.423Z,77.75
2018-09-25T02:22:17.109Z,77.85
2018-09-25T02:24:50.774Z,77.93
2018-09-25T02:27:24.385Z,77.73
2018-09-25T02:29:58.258Z,77.72
2018-09-25T02:32:31.854Z,77.71
2018-09-25T02:35:05.849Z,77.86
2018-09-25T02:37:39.658Z,77.75
2018-09-25T02:40:13.578Z,78.75
2018-09-25T02:42:47.469Z,78.41
2018-09-25T02:45:21.126Z,78.94
2018-09-25T02:47:54.977Z,79.15
2018-09-25T02:50:29.022Z,78.62
2018-09-25T02:53:02.910Z,78.82
2018-09-25T02:55:36.771Z,78.18
2018-09-25T02:58:10.610Z,78.25
2018-09-25T03:00:44.301Z,79.48
2018-09-25T03:03:17.855Z,79.69
2018-09-25T03:05:51.665Z,79.78
2018-09-25T03:08:25.427Z,79.53
2018-09-25T03:10:59.266Z,79.22
2018-09-25T03:13:33.105Z,79.00
2018-09-25T03:16:06.772Z,79.41
2018-09-25T03:18:40.581Z,79.67
2018-09-25T03:21:14.526Z,78.84
2018-09-25T03:23:48.513Z,78.79
2018-09-25T03:26:22.018Z,79.58
2018-09-25T03:28:55.844Z,79.96
2018-09-25T03:31:29.713Z,79.44
2018-09-25T03:34:03.525Z,79.50
2018-09-25T03:36:37.585Z,79.24
2018-09-25T03:39:13.542Z,79.51
2018-09-25T03:41:47.530Z,79.57
2018-09-25T03:44:21.189Z,80.47
2018-09-25T03:46:54.972Z,80.05
2018-09-25T03:49:28.872Z,79.42
2018-09-25T03:52:02.645Z,79.82
2018-09-25T03:54:36.485Z,79.70
2018-09-25T03:57:10.267Z,79.76
2018-09-25T03:59:43.974Z,79.41
2018-09-25T04:02:17.574Z,79.52
2018-09-25T04:04:51.383Z,79.28
2018-09-25T04:07:25.315Z,79.57
2018-09-25T04:09:59.102Z,79.58
2018-09-25T04:12:32.799Z,80.42
2018-09-25T04:15:06.590Z,79.85
2018-09-25T04:17:40.406Z,79.59
2018-09-25T04:20:14.337Z,79.34
2018-09-25T04:22:48.280Z,79.53
2018-09-25T04:25:22.142Z,79.94
2018-09-25T04:27:55.882Z,80.26
2018-09-25T04:30:29.617Z,80.29
2018-09-25T04:33:03.674Z,79.92
2018-09-25T04:35:37.610Z,79.55
2018-09-25T04:38:11.473Z,81.18
2018-09-25T04:40:45.610Z,80.11
2018-09-25T04:43:21.142Z,80.25
2018-09-25T04:45:54.936Z,80.07
2018-09-25T04:48:28.674Z,80.16
2018-09-25T04:51:02.599Z,80.11
2018-09-25T04:53:36.378Z,80.33
2018-09-25T04:56:10.242Z,80.55
2018-09-25T04:58:44.172Z,80.42
2018-09-25T05:01:17.941Z,80.46
2018-09-25T05:03:51.790Z,79.48
2018-09-25T05:06:25.674Z,80.22
2018-09-25T05:08:59.535Z,79.96
2018-09-25T05:11:33.952Z,80.30
2018-09-25T05:14:07.970Z,80.15
2018-09-25T05:16:42.943Z,80.61
2018-09-25T05:19:16.626Z,80.53
2018-09-25T05:21:50.308Z,80.55
2018-09-25T05:24:24.374Z,80.93
2018-09-25T05:26:58.223Z,81.05
2018-09-25T05:29:32.074Z,80.94
2018-09-25T05:32:05.827Z,81.17
2018-09-25T05:34:39.656Z,81.01
2018-09-25T05:37:13.282Z,80.98
2018-09-25T05:39:47.542Z,80.80
2018-09-25T05:42:21.497Z,80.96
2018-09-25T05:44:55.870Z,82.06
2018-09-25T05:47:29.779Z,81.40
2018-09-25T05:50:03.678Z,81.54
2018-09-25T05:52:37.386Z,82.08
2018-09-25T05:55:11.364Z,81.70
2018-09-25T05:57:45.229Z,82.02
2018-09-25T06:00:19.094Z,82.52
2018-09-25T06:02:52.970Z,82.12
2018-09-25T06:05:28.065Z,82.41
2018-09-25T06:08:04.543Z,82.48
2018-09-25T06:10:39.210Z,82.40
2018-09-25T06:13:13.893Z,82.10
2018-09-25T06:15:47.745Z,82.57
2018-09-25T06:18:21.655Z,82.17
2018-09-25T06:20:55.470Z,82.06
2018-09-25T06:23:29.186Z,81.58
2018-09-25T06:26:03.046Z,80.62
2018-09-25T06:28:36.814Z,81.17
2018-09-25T06:31:10.430Z,81.27
2018-09-25T06:33:44.158Z,81.24
2018-09-25T06:36:17.942Z,82.03
2018-09-25T06:38:51.813Z,81.72
2018-09-25T06:41:26.005Z,81.77
2018-09-25T06:44:00.392Z,81.63
2018-09-25T06:46:34.162Z,81.45
2018-09-25T06:49:08.034Z,81.61
2018-09-25T06:51:41.786Z,81.30
2018-09-25T06:54:15.747Z,81.61
2018-09-25T06:56:49.631Z,81.93
2018-09-25T06:59:25.050Z,81.88
2018-09-25T07:01:58.904Z,81.86
2018-09-25T07:04:32.645Z,81.74
2018-09-25T07:07:06.810Z,81.76
2018-09-25T07:09:40.512Z,81.94
2018-09-25T07:12:14.673Z,82.33
2018-09-25T07:14:48.563Z,81.88
2018-09-25T07:17:22.349Z,81.46
2018-09-25T07:19:56.016Z,81.40
2018-09-25T07:22:29.755Z,82.09
2018-09-25T07:25:03.558Z,81.07
2018-09-25T07:27:37.122Z,81.17
2018-09-25T07:30:12.084Z,80.57
2018-09-25T07:32:46.258Z,80.47
2018-09-25T07:35:20.011Z,80.20
2018-09-25T07:37:53.963Z,78.08
2018-09-25T07:40:27.587Z,75.39
2018-09-25T07:43:01.469Z,73.43
2018-09-25T07:45:35.335Z,72.54
2018-09-25T07:48:10.509Z,71.86
2018-09-25T07:50:44.181Z,72.36
2018-09-25T07:53:18.087Z,71.71
2018-09-25T07:55:51.815Z,71.23
2018-09-25T07:58:25.585Z,70.38
2018-09-25T08:00:59.386Z,69.46
2018-09-25T08:03:33.450Z,68.80
2018-09-25T08:06:07.250Z,68.57
2018-09-25T08:08:41.009Z,68.55
2018-09-25T08:11:14.631Z,68.49
2018-09-25T08:13:48.170Z,66.04
2018-09-25T08:16:21.905Z,67.54
2018-09-25T08:18:55.858Z,65.28
2018-09-25T08:21:29.509Z,65.86
2018-09-25T08:24:03.274Z,66.13
2018-09-25T08:26:37.239Z,65.54
2018-09-25T08:29:10.898Z,66.03
2018-09-25T08:31:44.826Z,66.24
2018-09-25T08:34:18.864Z,66.97
2018-09-25T08:36:52.638Z,66.92
2018-09-25T08:39:26.545Z,66.85
2018-09-25T08:42:00.414Z,66.52
2018-09-25T08:44:34.334Z,67.15
2018-09-25T08:47:07.978Z,67.20
2018-09-25T08:49:41.900Z,67.43
2018-09-25T08:52:22.682Z,67.52
2018-09-25T08:54:56.511Z,68.01
2018-09-25T08:57:30.882Z,67.90
2018-09-25T09:00:04.562Z,68.47
2018-09-25T09:02:38.218Z,66.56
2018-09-25T09:05:11.925Z,66.47
2018-09-25T09:07:45.647Z,65.17
2018-09-25T09:10:20.036Z,62.53
2018-09-25T09:12:54.020Z,63.08
2018-09-25T09:15:27.940Z,62.57
2018-09-25T09:18:01.749Z,62.71
2018-09-25T09:20:35.546Z,62.89
2018-09-25T09:23:09.487Z,60.42
2018-09-25T09:25:43.350Z,60.05
2018-09-25T09:28:17.254Z,61.06
2018-09-25T09:30:50.976Z,59.73
2018-09-25T09:33:24.558Z,58.53
2018-09-25T09:35:59.426Z,59.40
2018-09-25T09:38:33.418Z,59.94
2018-09-25T09:41:07.264Z,58.33
2018-09-25T09:43:41.652Z,59.12
2018-09-25T09:46:15.446Z,59.52
2018-09-25T09:48:50.134Z,59.42
2018-09-25T09:51:23.834Z,59.67
2018-09-25T09:53:57.670Z,59.68
2018-09-25T09:56:31.804Z,58.69
2018-09-25T09:59:05.472Z,58.47
2018-09-25T10:01:39.529Z,58.23
2018-09-25T10:04:15.102Z,60.86
2018-09-25T10:06:49.110Z,59.27
2018-09-25T10:09:22.734Z,57.75
2018-09-25T10:11:56.562Z,59.50
2018-09-25T10:14:30.274Z,58.81
2018-09-25T10:17:03.971Z,58.52
2018-09-25T10:19:39.318Z,58.55
2018-09-25T10:22:13.390Z,58.97
2018-09-25T10:24:47.002Z,58.50
2018-09-25T10:27:20.838Z,56.77
2018-09-25T10:29:55.218Z,56.10
2018-09-25T10:32:29.087Z,55.28
2018-09-25T10:35:02.718Z,55.80
2018-09-25T10:37:36.467Z,56.86
2018-09-25T10:40:10.346Z,56.34
2018-09-25T10:42:44.489Z,57.71
2018-09-25T10:45:18.290Z,57.16
2018-09-25T10:47:52.239Z,56.32
2018-09-25T10:50:26.058Z,57.05
2018-09-25T10:53:00.022Z,57.88
2018-09-25T10:55:34.171Z,55.83
2018-09-25T10:58:08.066Z,55.64
2018-09-25T11:00:41.841Z,57.02
2018-09-25T11:03:15.859Z,56.41
2018-09-25T11:05:49.531Z,56.97
2018-09-25T11:08:23.310Z,56.11
2018-09-25T11:10:57.165Z,56.70
2018-09-25T11:13:30.830Z,56.67
2018-09-25T11:16:04.642Z,55.46
2018-09-25T11:18:38.440Z,56.02
2018-09-25T11:21:12.431Z,56.68
2018-09-25T11:23:47.128Z,56.26
2018-09-25T11:26:21.021Z,56.66
2018-09-25T11:28:54.834Z,57.40
2018-09-25T11:31:28.565Z,57.14
2018-09-25T11:34:02.317Z,57.10
2018-09-25T11:36:36.198Z,56.69
2018-09-25T11:39:10.916Z,58.49
2018-09-25T11:41:44.726Z,58.84
2018-09-25T11:44:18.766Z,58.45
2018-09-25T11:46:53.219Z,58.12
2018-09-25T11:49:27.010Z,58.72
2018-09-25T11:52:00.917Z,58.08
2018-09-25T11:54:34.670Z,57.86
2018-09-25T11:57:08.215Z,58.28
2018-09-25T11:59:42.300Z,58.33
2018-09-25T12:02:16.085Z,58.19
2018-09-25T12:04:49.846Z,58.31
2018-09-25T12:07:24.227Z,59.67
2018-09-25T12:09:57.963Z,58.53
2018-09-25T12:12:31.690Z,58.96
2018-09-25T12:15:06.262Z,58.21
2018-09-25T12:17:40.203Z,58.86
2018-09-25T12:20:13.890Z,58.39
2018-09-25T12:22:47.651Z,58.83
2018-09-25T12:25:21.332Z,59.39
2018-09-25T12:27:54.962Z,56.57
2018-09-25T12:30:30.097Z,57.85
2018-09-25T12:33:04.233Z,56.43
2018-09-25T12:35:37.960Z,57.58
2018-09-25T12:38:11.765Z,56.91
2018-09-25T12:40:45.836Z,57.74
2018-09-25T12:43:19.525Z,57.46
2018-09-25T12:45:53.397Z,56.84
2018-09-25T12:48:27.192Z,56.82
2018-09-25T12:51:01.882Z,57.36
2018-09-25T12:53:35.733Z,58.44
2018-09-25T12:56:09.394Z,58.34
2018-09-25T12:58:42.950Z,57.01
2018-09-25T13:01:16.582Z,57.62
2018-09-25T13:03:50.686Z,58.33
2018-09-25T13:06:24.649Z,58.37
2018-09-25T13:08:58.413Z,57.96
2018-09-25T13:11:32.158Z,56.29
2018-09-25T13:14:05.882Z,57.58
2018-09-25T13:16:39.726Z,57.24
2018-09-25T13:19:13.675Z,57.37
2018-09-25T13:21:47.501Z,58.26
2018-09-25T13:24:21.329Z,57.84
2018-09-25T13:26:55.174Z,58.12
2018-09-25T13:29:28.938Z,57.68
2018-09-25T13:32:02.535Z,57.08
2018-09-25T13:34:36.317Z,56.91
2018-09-25T13:37:10.066Z,57.98
2018-09-25T13:39:44.529Z,58.45
2018-09-25T13:42:18.430Z,58.45
2018-09-25T13:44:52.343Z,58.17
2018-09-25T13:47:26.061Z,58.17
2018-09-25T13:50:00.169Z,58.00
2018-09-25T13:52:34.002Z,57.58
2018-09-25T13:55:07.698Z,58.19
2018-09-25T13:57:41.342Z,57.98
2018-09-25T14:00:15.538Z,59.44
2018-09-25T14:02:49.493Z,57.82
2018-09-25T14:05:23.651Z,57.86
2018-09-25T14:07:58.539Z,57.13
2018-09-25T14:10:32.241Z,58.02
2018-09-25T14:13:05.910Z,58.55
2018-09-25T14:15:39.720Z,58.38
2018-09-25T14:18:13.551Z,59.34
2018-09-25T14:20:47.426Z,59.51
2018-09-25T14:23:22.831Z,59.91
2018-09-25T14:25:56.558Z,59.50
2018-09-25T14:28:30.309Z,57.91
2018-09-25T14:31:04.017Z,58.90
2018-09-25T14:33:37.819Z,58.42
2018-09-25T14:36:11.689Z,57.37
2018-09-25T14:38:45.906Z,57.68
2018-09-25T14:41:19.745Z,57.73
2018-09-25T14:43:53.934Z,59.58
2018-09-25T14:46:27.765Z,61.13
2018-09-25T14:49:01.503Z,60.99
2018-09-25T14:51:35.268Z,61.72
2018-09-25T14:54:09.181Z,61.74
2018-09-25T14:56:43.023Z,62.23
2018-09-25T14:59:17.055Z,62.57
2018-09-25T15:01:50.803Z,62.56
2018-09-25T15:04:24.621Z,62.55
2018-09-25T15:06:58.574Z,63.23
2018-09-25T15:09:32.371Z,63.56
2018-09-25T15:12:06.331Z,63.36
2018-09-25T15:14:40.260Z,63.86
2018-09-25T15:17:14.146Z,64.64
2018-09-25T15:19:48.004Z,64.09
2018-09-25T15:22:22.095Z,64.16
2018-09-25T15:24:55.324Z,62.49
2018-09-25T15:27:29.589Z,60.80
2018-09-25T15:30:03.404Z,60.85
2018-09-25T15:32:37.115Z,61.13
2018-09-25T15:35:11.171Z,60.65
2018-09-25T15:37:45.010Z,59.85
2018-09-25T15:40:18.502Z,59.35
2018-09-25T15:42:52.510Z,59.83
2018-09-25T15:45:26.393Z,59.53
2018-09-25T15:48:00.243Z,60.44
2018-09-25T15:50:34.062Z,60.34
2018-09-25T15:53:07.858Z,60.77
2018-09-25T15:55:41.618Z,61.06
2018-09-25T15:58:15.460Z,60.98
2018-09-25T16:00:49.142Z,61.73
2018-09-25T16:03:22.858Z,61.70
2018-09-25T16:05:56.754Z,60.68
2018-09-25T16:08:30.607Z,60.66
2018-09-25T16:11:04.489Z,61.29
2018-09-25T16:13:38.478Z,61.40
2018-09-25T16:16:13.186Z,61.74
2018-09-25T16:18:46.854Z,61.98
2018-09-25T16:21:20.622Z,62.43
2018-09-25T16:23:54.501Z,62.60
2018-09-25T16:26:28.357Z,63.49
2018-09-25T16:29:02.129Z,63.58
2018-09-25T16:31:35.946Z,63.88
2018-09-25T16:34:09.739Z,64.00
2018-09-25T16:36:43.450Z,64.26
2018-09-25T16:39:17.276Z,64.79
2018-09-25T16:41:51.026Z,64.81
2018-09-25T16:44:25.065Z,65.00
2018-09-25T16:46:58.820Z,64.53
2018-09-25T16:49:33.518Z,64.29
2018-09-25T16:52:07.470Z,64.81
2018-09-25T16:54:41.437Z,64.83
2018-09-25T16:57:15.365Z,65.01
2018-09-25T16:59:50.187Z,65.15
2018-09-25T17:02:24.151Z,65.11
2018-09-25T17:04:58.638Z,64.85
2018-09-25T17:07:32.280Z,64.39
2018-09-25T17:10:05.947Z,63.97
2018-09-25T17:12:39.806Z,64.05
2018-09-25T17:15:13.809Z,63.78
2018-09-25T17:17:47.775Z,64.05
2018-09-25T17:20:21.458Z,65.03
2018-09-25T17:22:55.302Z,65.19
2018-09-25T17:25:28.998Z,64.58
2018-09-25T17:28:02.664Z,64.26
2018-09-25T17:30:36.242Z,64.07
2018-09-25T17:33:10.332Z,64.25
2018-09-25T17:35:44.006Z,64.89
2018-09-25T17:38:17.840Z,65.19
2018-09-25T17:40:51.662Z,65.92
2018-09-25T17:43:25.663Z,65.85
2018-09-25T17:45:59.404Z,65.76
2018-09-25T17:48:33.410Z,66.12
2018-09-25T17:51:07.379Z,66.23
2018-09-25T17:53:41.274Z,66.35
2018-09-25T17:56:15.054Z,66.04
2018-09-25T17:58:48.842Z,65.70
2018-09-25T18:01:22.666Z,65.74
2018-09-25T18:03:57.449Z,66.10
2018-09-25T18:06:31.699Z,66.39
2018-09-25T18:09:05.622Z,66.54
2018-09-25T18:11:39.429Z,66.75
2018-09-25T18:14:13.479Z,68.08
2018-09-25T18:16:47.229Z,68.67
2018-09-25T18:19:21.921Z,68.46
2018-09-25T18:21:55.710Z,67.73
2018-09-25T18:24:29.657Z,68.40
2018-09-25T18:27:03.314Z,68.41
2018-09-25T18:29:37.038Z,68.90
2018-09-25T18:32:10.786Z,69.93
2018-09-25T18:34:44.598Z,70.23
2018-09-25T18:37:18.508Z,69.85
2018-09-25T18:39:52.341Z,70.54
2018-09-25T18:42:25.989Z,70.21
2018-09-25T18:45:00.365Z,71.37
2018-09-25T18:47:34.226Z,70.93
2018-09-25T18:50:07.930Z,71.52
2018-09-25T18:52:41.702Z,72.23
2018-09-25T18:55:15.478Z,72.08
2018-09-25T18:57:50.312Z,72.60
2018-09-25T19:00:24.182Z,72.70
2018-09-25T19:02:58.016Z,72.33
2018-09-25T19:05:31.967Z,73.01
2018-09-25T19:08:05.838Z,73.76
2018-09-25T19:10:39.952Z,73.26
2018-09-25T19:13:13.861Z,74.12
2018-09-25T19:15:47.727Z,73.96
2018-09-25T19:18:21.317Z,74.50
2018-09-25T19:20:55.022Z,75.22
2018-09-25T19:23:28.506Z,75.81
2018-09-25T19:26:02.247Z,76.91
2018-09-25T19:28:35.872Z,76.61
2018-09-25T19:31:09.678Z,75.54
2018-09-25T19:33:43.502Z,76.44
2018-09-25T19:36:17.210Z,77.14
2018-09-25T19:38:51.058Z,76.54
2018-09-25T19:41:24.934Z,76.57
2018-09-25T19:43:58.691Z,76.69
2018-09-25T19:46:32.507Z,78.03
2018-09-25T19:49:06.234Z,78.37
2018-09-25T19:51:40.074Z,78.44
2018-09-25T19:54:13.975Z,77.17
2018-09-25T19:56:47.895Z,78.32
2018-09-25T19:59:21.711Z,78.31
2018-09-25T20:01:55.450Z,79.60
2018-09-25T20:04:29.553Z,78.47
2018-09-25T20:07:03.476Z,79.29
2018-09-25T20:09:37.202Z,79.19
2018-09-25T20:12:10.986Z,78.54
2018-09-25T20:14:44.564Z,78.85
2018-09-25T20:17:18.268Z,79.04
2018-09-25T20:19:52.101Z,78.80
2018-09-25T20:22:25.917Z,79.05
2018-09-25T20:24:59.502Z,78.98
2018-09-25T20:27:33.496Z,79.32
2018-09-25T20:30:07.138Z,79.87
2018-09-25T20:32:40.882Z,79.69
2018-09-25T20:35:14.828Z,79.01
2018-09-25T20:37:48.710Z,79.16
2018-09-25T20:40:22.522Z,78.99
2018-09-25T20:42:56.478Z,78.30
2018-09-25T20:45:30.103Z,78.38
2018-09-25T20:48:03.794Z,78.44
2018-09-25T20:50:37.583Z,78.93
2018-09-25T20:53:11.478Z,79.17
2018-09-25T20:55:45.233Z,78.14
2018-09-25T20:58:19.206Z,79.35
2018-09-25T21:00:52.798Z,78.62
2018-09-25T21:03:26.694Z,79.33
2018-09-25T21:06:00.344Z,79.54
2018-09-25T21:08:34.299Z,79.00
2018-09-25T21:11:08.226Z,79.38
2018-09-25T21:13:42.074Z,78.73
2018-09-25T21:16:15.813Z,79.29
2018-09-25T21:18:49.614Z,80.40
2018-09-25T21:21:23.612Z,80.30
2018-09-25T21:23:57.466Z,80.55
2018-09-25T21:26:31.169Z,80.86
2018-09-25T21:29:04.978Z,81.09
2018-09-25T21:31:38.797Z,81.21
2018-09-25T21:34:12.862Z,80.27
2018-09-25T21:36:46.724Z,80.80
2018-09-25T21:39:20.657Z,80.21
2018-09-25T21:41:54.322Z,81.36
2018-09-25T21:44:28.150Z,81.09
2018-09-25T21:47:01.981Z,80.47
2018-09-25T21:49:35.982Z,80.04
2018-09-25T21:52:09.823Z,80.60
2018-09-25T21:54:43.768Z,79.48
2018-09-25T21:57:17.748Z,78.78
2018-09-25T21:59:51.389Z,79.05
2018-09-25T22:02:25.211Z,78.85
2018-09-25T22:04:58.945Z,78.64
2018-09-25T22:07:32.681Z,78.88
2018-09-25T22:10:09.562Z,79.96
2018-09-25T22:12:43.386Z,80.37
2018-09-25T22:15:17.206Z,80.45
2018-09-25T22:17:51.007Z,79.86
2018-09-25T22:20:24.615Z,80.76
2018-09-25T22:22:58.473Z,81.12
2018-09-25T22:25:32.172Z,80.83
2018-09-25T22:28:05.766Z,81.35
2018-09-25T22:30:39.628Z,81.38
2018-09-25T22:33:13.488Z,81.54
2018-09-25T22:35:47.353Z,80.73
2018-09-25T22:38:21.147Z,80.81
2018-09-25T22:40:54.921Z,80.05
2018-09-25T22:43:28.528Z,80.41
2018-09-25T22:46:02.563Z,79.61
2018-09-25T22:48:36.367Z,79.94
2018-09-25T22:51:10.172Z,78.95
2018-09-25T22:53:43.749Z,78.17
2018-09-25T22:56:17.584Z,78.78
2018-09-25T22:58:51.310Z,78.33
2018-09-25T23:01:25.185Z,78.13
2018-09-25T23:03:58.973Z,77.88
2018-09-25T23:06:32.765Z,78.22
2018-09-25T23:09:06.609Z,77.61
2018-09-25T23:11:40.193Z,77.84
2018-09-25T23:14:14.012Z,76.89
2018-09-25T23:16:47.957Z,77.05
2018-09-25T23:19:21.825Z,77.76
2018-09-25T23:21:55.632Z,78.30
2018-09-25T23:24:29.421Z,77.89
2018-09-25T23:27:03.373Z,77.68
2018-09-25T23:29:37.277Z,78.38
2018-09-25T23:32:11.153Z,77.86
2018-09-25T23:34:45.005Z,77.88
2018-09-25T23:37:18.893Z,77.43
2018-09-25T23:39:52.485Z,77.83
2018-09-25T23:42:29.993Z,77.47
2018-09-25T23:47:06.501Z,77.44
2018-09-25T23:49:55.709Z,77.62
2018-09-25T23:52:30.235Z,77.31
2018-09-25T23:55:03.033Z,76.22
2018-09-25T23:57:36.261Z,75.77
